Gueydan, Louisiana
Current Conditions -  °F | °C
As of 1:35 PM on Friday 24 Oct 2014 (Local Time) from K3R7 Reporting Station
Clear Clear  
Wind Chill: 72°   Ceiling: Unl
Heat Index: 72°   Visibility: 10mi
Dew Point: 48°   Wind: 5mph
Humidity: 43%   Direction: 20°NNE
Pressure: 30.11"   Gusts: NA
Location:  30.03°N, 92.51°W
Report Text: K3R7 241835Z AUTO 02004KT 10SM CLR 22/09 A3011 RMK AO2 T02200087
Loading
Personal Weather Stations






























Interactive Weather Map
Tropical Storm Tracking
New forecast layout! Learn more

10-Day Weather Forecast

Advertisements
Track Severe Weather on mobile